Terminal Aerodrome Forecast
Issued by NWS Central Illinois

Home | Current Version | Previous Version | Text Only | Print | Product List | Glossary On
Versions: 1 2 3 4 5 6 7 8 9 10 11 12 13 14 15 16 17 18 19 20
262
FTUS43 KILX 101134
TAFSPI
TAF
KSPI 101134Z 1012/1112 29009KT P6SM SCT250
     FM101700 29008KT P6SM SCT025 BKN150
     FM102300 VRB05KT P6SM VCSH BKN040 PROB30 1100/1104 4SM -SHSN
      OVC025
     FM110900 02005KT P6SM SCT060=

USA.gov is the U.S. government's official web portal to all federal, state and local government web resources and services.